sensor_id;sensor_type;location;lat;lon;timestamp;temperature;humidity
12700;DHT22;6414;49.570;6.060;2023-03-14T00:00:43;9.20;99.90
12700;DHT22;6414;49.570;6.060;2023-03-14T00:03:29;9.10;99.90
12700;DHT22;6414;49.570;6.060;2023-03-14T00:06:15;9.10;99.90
12700;DHT22;6414;49.570;6.060;2023-03-14T00:09:00;9.10;99.90
12700;DHT22;6414;49.570;6.060;2023-03-14T00:11:46;9.10;99.90
12700;DHT22;6414;49.570;6.060;2023-03-14T00:14:32;9.10;99.90
12700;DHT22;6414;49.570;6.060;2023-03-14T00:17:17;9.10;99.90
12700;DHT22;6414;49.570;6.060;2023-03-14T00:20:03;9.10;99.90
12700;DHT22;6414;49.570;6.060;2023-03-14T00:22:48;9.00;99.90
12700;DHT22;6414;49.570;6.060;2023-03-14T00:25:34;9.00;99.90
12700;DHT22;6414;49.570;6.060;2023-03-14T00:28:20;9.00;99.90
12700;DHT22;6414;49.570;6.060;2023-03-14T00:31:06;9.00;99.90
12700;DHT22;6414;49.570;6.060;2023-03-14T00:33:51;9.00;99.90
12700;DHT22;6414;49.570;6.060;2023-03-14T00:36:36;9.00;99.90
12700;DHT22;6414;49.570;6.060;2023-03-14T00:39:22;9.10;99.90
12700;DHT22;6414;49.570;6.060;2023-03-14T00:42:08;9.10;99.90
12700;DHT22;6414;49.570;6.060;2023-03-14T00:44:53;9.20;99.90
12700;DHT22;6414;49.570;6.060;2023-03-14T00:47:38;9.10;99.90
12700;DHT22;6414;49.570;6.060;2023-03-14T00:50:24;9.20;99.90
12700;DHT22;6414;49.570;6.060;2023-03-14T00:53:09;9.10;99.90
12700;DHT22;6414;49.570;6.060;2023-03-14T00:55:55;9.10;99.90
12700;DHT22;6414;49.570;6.060;2023-03-14T00:58:41;9.00;99.90
12700;DHT22;6414;49.570;6.060;2023-03-14T01:01:26;9.10;99.90
12700;DHT22;6414;49.570;6.060;2023-03-14T01:04:12;9.00;99.90
12700;DHT22;6414;49.570;6.060;2023-03-14T01:06:57;9.00;99.90
12700;DHT22;6414;49.570;6.060;2023-03-14T01:09:43;9.00;99.90
12700;DHT22;6414;49.570;6.060;2023-03-14T01:12:29;9.00;99.90
12700;DHT22;6414;49.570;6.060;2023-03-14T01:15:14;9.00;99.90
12700;DHT22;6414;49.570;6.060;2023-03-14T01:18:00;9.00;99.90
12700;DHT22;6414;49.570;6.060;2023-03-14T01:20:46;8.90;99.90
12700;DHT22;6414;49.570;6.060;2023-03-14T01:23:31;8.90;99.90
12700;DHT22;6414;49.570;6.060;2023-03-14T01:26:18;8.80;99.90
12700;DHT22;6414;49.570;6.060;2023-03-14T01:29:03;8.80;99.90
12700;DHT22;6414;49.570;6.060;2023-03-14T01:31:49;8.80;99.90
12700;DHT22;6414;49.570;6.060;2023-03-14T01:34:35;8.80;99.90
12700;DHT22;6414;49.570;6.060;2023-03-14T01:37:20;8.70;99.90
12700;DHT22;6414;49.570;6.060;2023-03-14T01:40:05;8.70;99.90
12700;DHT22;6414;49.570;6.060;2023-03-14T01:42:57;8.60;99.90
12700;DHT22;6414;49.570;6.060;2023-03-14T01:49:09;8.60;99.90
12700;DHT22;6414;49.570;6.060;2023-03-14T01:54:43;8.40;99.90
12700;DHT22;6414;49.570;6.060;2023-03-14T01:57:38;8.40;99.90
12700;DHT22;6414;49.570;6.060;2023-03-14T02:00:23;8.40;99.90
12700;DHT22;6414;49.570;6.060;2023-03-14T02:03:15;8.30;99.90
12700;DHT22;6414;49.570;6.060;2023-03-14T02:06:00;8.30;99.90
12700;DHT22;6414;49.570;6.060;2023-03-14T02:08:45;8.30;99.90
12700;DHT22;6414;49.570;6.060;2023-03-14T02:11:31;8.30;99.90
12700;DHT22;6414;49.570;6.060;2023-03-14T02:14:20;8.30;99.90
12700;DHT22;6414;49.570;6.060;2023-03-14T02:17:04;8.20;99.90
12700;DHT22;6414;49.570;6.060;2023-03-14T02:22:46;8.10;99.90
12700;DHT22;6414;49.570;6.060;2023-03-14T02:25:52;8.10;99.90
12700;DHT22;6414;49.570;6.060;2023-03-14T02:28:36;8.10;99.90
12700;DHT22;6414;49.570;6.060;2023-03-14T02:31:23;8.10;99.90
12700;DHT22;6414;49.570;6.060;2023-03-14T02:34:08;8.10;99.90
12700;DHT22;6414;49.570;6.060;2023-03-14T02:36:54;8.10;99.90
12700;DHT22;6414;49.570;6.060;2023-03-14T02:39:41;8.10;99.90
12700;DHT22;6414;49.570;6.060;2023-03-14T02:42:25;8.10;99.90
12700;DHT22;6414;49.570;6.060;2023-03-14T02:48:02;8.10;99.90
12700;DHT22;6414;49.570;6.060;2023-03-14T02:50:47;8.10;99.90
12700;DHT22;6414;49.570;6.060;2023-03-14T02:53:33;8.10;99.90
12700;DHT22;6414;49.570;6.060;2023-03-14T02:56:18;8.10;99.90
12700;DHT22;6414;49.570;6.060;2023-03-14T02:59:04;8.10;99.90
12700;DHT22;6414;49.570;6.060;2023-03-14T03:01:49;8.10;99.90
12700;DHT22;6414;49.570;6.060;2023-03-14T03:04:34;8.10;99.90
12700;DHT22;6414;49.570;6.060;2023-03-14T03:07:19;8.10;99.90
12700;DHT22;6414;49.570;6.060;2023-03-14T03:10:05;8.10;99.90
12700;DHT22;6414;49.570;6.060;2023-03-14T03:12:50;8.10;99.90
12700;DHT22;6414;49.570;6.060;2023-03-14T03:15:36;8.10;99.90
12700;DHT22;6414;49.570;6.060;2023-03-14T03:18:22;8.10;99.90
12700;DHT22;6414;49.570;6.060;2023-03-14T03:21:07;8.10;99.90
12700;DHT22;6414;49.570;6.060;2023-03-14T03:23:52;8.10;99.90
12700;DHT22;6414;49.570;6.060;2023-03-14T03:26:38;8.10;99.90
12700;DHT22;6414;49.570;6.060;2023-03-14T03:29:24;8.10;99.90
12700;DHT22;6414;49.570;6.060;2023-03-14T03:32:09;8.00;99.90
12700;DHT22;6414;49.570;6.060;2023-03-14T03:34:55;8.10;99.90
12700;DHT22;6414;49.570;6.060;2023-03-14T03:37:41;8.00;99.90
12700;DHT22;6414;49.570;6.060;2023-03-14T03:40:27;8.10;99.90
12700;DHT22;6414;49.570;6.060;2023-03-14T03:43:12;8.00;99.90
12700;DHT22;6414;49.570;6.060;2023-03-14T03:46:02;8.00;99.90
12700;DHT22;6414;49.570;6.060;2023-03-14T03:48:44;8.00;99.90
12700;DHT22;6414;49.570;6.060;2023-03-14T03:51:29;8.00;99.90
12700;DHT22;6414;49.570;6.060;2023-03-14T03:54:15;8.00;99.90
12700;DHT22;6414;49.570;6.060;2023-03-14T03:57:01;8.00;99.90
12700;DHT22;6414;49.570;6.060;2023-03-14T03:59:46;7.90;99.90
12700;DHT22;6414;49.570;6.060;2023-03-14T04:02:32;7.90;99.90
12700;DHT22;6414;49.570;6.060;2023-03-14T04:05:18;7.90;99.90
12700;DHT22;6414;49.570;6.060;2023-03-14T04:08:04;7.90;99.90
12700;DHT22;6414;49.570;6.060;2023-03-14T04:10:53;7.90;99.90
12700;DHT22;6414;49.570;6.060;2023-03-14T04:13:37;7.90;99.90
12700;DHT22;6414;49.570;6.060;2023-03-14T04:16:23;7.90;99.90
12700;DHT22;6414;49.570;6.060;2023-03-14T04:19:08;7.90;99.90
12700;DHT22;6414;49.570;6.060;2023-03-14T04:21:54;7.90;99.90
12700;DHT22;6414;49.570;6.060;2023-03-14T04:24:40;7.90;99.90
12700;DHT22;6414;49.570;6.060;2023-03-14T04:27:26;7.90;99.90
12700;DHT22;6414;49.570;6.060;2023-03-14T04:30:12;7.90;99.90
12700;DHT22;6414;49.570;6.060;2023-03-14T04:32:58;7.80;99.90
12700;DHT22;6414;49.570;6.060;2023-03-14T04:35:44;7.80;99.90
12700;DHT22;6414;49.570;6.060;2023-03-14T04:38:30;7.80;99.90
12700;DHT22;6414;49.570;6.060;2023-03-14T04:41:16;7.90;99.90
12700;DHT22;6414;49.570;6.060;2023-03-14T04:44:02;7.90;99.90
12700;DHT22;6414;49.570;6.060;2023-03-14T04:46:48;7.90;99.90
12700;DHT22;6414;49.570;6.060;2023-03-14T04:49:33;7.80;99.90
12700;DHT22;6414;49.570;6.060;2023-03-14T04:52:19;7.90;99.90
12700;DHT22;6414;49.570;6.060;2023-03-14T04:55:05;7.90;99.90
12700;DHT22;6414;49.570;6.060;2023-03-14T04:57:50;7.90;99.90
12700;DHT22;6414;49.570;6.060;2023-03-14T05:00:35;7.90;99.90
12700;DHT22;6414;49.570;6.060;2023-03-14T05:03:21;7.80;99.90
12700;DHT22;6414;49.570;6.060;2023-03-14T05:06:06;7.80;99.90
12700;DHT22;6414;49.570;6.060;2023-03-14T05:08:52;7.90;99.90
12700;DHT22;6414;49.570;6.060;2023-03-14T05:11:38;7.90;99.90
12700;DHT22;6414;49.570;6.060;2023-03-14T05:14:25;7.80;99.90
12700;DHT22;6414;49.570;6.060;2023-03-14T05:17:10;7.80;99.90
12700;DHT22;6414;49.570;6.060;2023-03-14T05:19:56;7.90;99.90
12700;DHT22;6414;49.570;6.060;2023-03-14T05:22:41;7.90;99.90
12700;DHT22;6414;49.570;6.060;2023-03-14T05:25:27;7.80;99.90
12700;DHT22;6414;49.570;6.060;2023-03-14T05:28:13;7.90;99.90
12700;DHT22;6414;49.570;6.060;2023-03-14T05:30:59;7.80;99.90
12700;DHT22;6414;49.570;6.060;2023-03-14T05:33:45;7.90;99.90
12700;DHT22;6414;49.570;6.060;2023-03-14T05:36:30;7.90;99.90
12700;DHT22;6414;49.570;6.060;2023-03-14T05:39:15;7.90;99.90
12700;DHT22;6414;49.570;6.060;2023-03-14T05:42:01;7.90;99.90
12700;DHT22;6414;49.570;6.060;2023-03-14T05:44:47;7.90;99.90
12700;DHT22;6414;49.570;6.060;2023-03-14T05:47:33;7.90;99.90
12700;DHT22;6414;49.570;6.060;2023-03-14T05:50:18;8.00;99.90
12700;DHT22;6414;49.570;6.060;2023-03-14T05:53:04;8.00;99.90
12700;DHT22;6414;49.570;6.060;2023-03-14T05:55:53;8.00;99.90
12700;DHT22;6414;49.570;6.060;2023-03-14T05:58:38;8.00;99.90
12700;DHT22;6414;49.570;6.060;2023-03-14T06:01:24;8.00;99.90
12700;DHT22;6414;49.570;6.060;2023-03-14T06:04:09;8.00;99.90
12700;DHT22;6414;49.570;6.060;2023-03-14T06:06:56;8.00;99.90
12700;DHT22;6414;49.570;6.060;2023-03-14T06:09:41;8.00;99.90
12700;DHT22;6414;49.570;6.060;2023-03-14T06:12:27;8.10;99.90
12700;DHT22;6414;49.570;6.060;2023-03-14T06:15:12;8.00;99.90
12700;DHT22;6414;49.570;6.060;2023-03-14T06:17:58;8.00;99.90
12700;DHT22;6414;49.570;6.060;2023-03-14T06:20:44;8.10;99.90
12700;DHT22;6414;49.570;6.060;2023-03-14T06:23:29;8.10;99.90
12700;DHT22;6414;49.570;6.060;2023-03-14T06:26:16;8.10;99.90
12700;DHT22;6414;49.570;6.060;2023-03-14T06:29:02;8.10;99.90
12700;DHT22;6414;49.570;6.060;2023-03-14T06:31:48;8.10;99.90
12700;DHT22;6414;49.570;6.060;2023-03-14T06:34:33;8.10;99.90
12700;DHT22;6414;49.570;6.060;2023-03-14T06:37:20;8.10;99.90
12700;DHT22;6414;49.570;6.060;2023-03-14T06:40:05;8.10;99.90
12700;DHT22;6414;49.570;6.060;2023-03-14T06:42:50;8.20;99.90
12700;DHT22;6414;49.570;6.060;2023-03-14T06:45:36;8.10;99.90
12700;DHT22;6414;49.570;6.060;2023-03-14T06:48:22;8.10;99.90
12700;DHT22;6414;49.570;6.060;2023-03-14T06:51:07;8.10;99.90
12700;DHT22;6414;49.570;6.060;2023-03-14T06:53:54;8.20;99.90
12700;DHT22;6414;49.570;6.060;2023-03-14T06:56:40;8.20;99.90
12700;DHT22;6414;49.570;6.060;2023-03-14T06:59:27;8.30;99.90
12700;DHT22;6414;49.570;6.060;2023-03-14T07:02:12;8.20;99.90
12700;DHT22;6414;49.570;6.060;2023-03-14T07:04:58;8.30;99.90
12700;DHT22;6414;49.570;6.060;2023-03-14T07:07:44;8.30;99.90
12700;DHT22;6414;49.570;6.060;2023-03-14T07:10:31;8.30;99.90
12700;DHT22;6414;49.570;6.060;2023-03-14T07:13:18;8.40;99.90
12700;DHT22;6414;49.570;6.060;2023-03-14T07:16:03;8.40;99.90
12700;DHT22;6414;49.570;6.060;2023-03-14T07:18:49;8.40;99.90
12700;DHT22;6414;49.570;6.060;2023-03-14T07:21:34;8.40;99.90
12700;DHT22;6414;49.570;6.060;2023-03-14T07:24:19;8.40;99.90
12700;DHT22;6414;49.570;6.060;2023-03-14T07:27:05;8.30;99.90
12700;DHT22;6414;49.570;6.060;2023-03-14T07:29:52;8.30;99.90
12700;DHT22;6414;49.570;6.060;2023-03-14T07:32:38;8.30;99.90
12700;DHT22;6414;49.570;6.060;2023-03-14T07:35:24;8.30;99.90
12700;DHT22;6414;49.570;6.060;2023-03-14T07:38:09;8.40;99.90
12700;DHT22;6414;49.570;6.060;2023-03-14T07:40:59;8.40;99.90
12700;DHT22;6414;49.570;6.060;2023-03-14T07:43:45;8.40;99.90
12700;DHT22;6414;49.570;6.060;2023-03-14T07:46:30;8.30;99.90
12700;DHT22;6414;49.570;6.060;2023-03-14T07:49:16;8.40;99.90
12700;DHT22;6414;49.570;6.060;2023-03-14T07:52:01;8.40;99.90
12700;DHT22;6414;49.570;6.060;2023-03-14T07:54:47;8.50;99.90
12700;DHT22;6414;49.570;6.060;2023-03-14T07:57:32;8.50;99.90
12700;DHT22;6414;49.570;6.060;2023-03-14T08:00:18;8.40;99.90
12700;DHT22;6414;49.570;6.060;2023-03-14T08:03:03;8.50;99.90
12700;DHT22;6414;49.570;6.060;2023-03-14T08:05:49;8.40;99.90
12700;DHT22;6414;49.570;6.060;2023-03-14T08:08:35;8.50;99.90
12700;DHT22;6414;49.570;6.060;2023-03-14T08:11:21;8.40;99.90
12700;DHT22;6414;49.570;6.060;2023-03-14T08:14:06;8.50;99.90
12700;DHT22;6414;49.570;6.060;2023-03-14T08:16:52;8.50;99.90
12700;DHT22;6414;49.570;6.060;2023-03-14T08:19:38;8.50;99.90
12700;DHT22;6414;49.570;6.060;2023-03-14T08:22:24;8.60;99.90
12700;DHT22;6414;49.570;6.060;2023-03-14T08:25:09;8.60;99.90
12700;DHT22;6414;49.570;6.060;2023-03-14T08:27:55;8.60;99.90
12700;DHT22;6414;49.570;6.060;2023-03-14T08:30:41;8.60;99.90
12700;DHT22;6414;49.570;6.060;2023-03-14T08:33:27;8.60;99.90
12700;DHT22;6414;49.570;6.060;2023-03-14T08:36:12;8.70;99.90
12700;DHT22;6414;49.570;6.060;2023-03-14T08:38:58;8.70;99.90
12700;DHT22;6414;49.570;6.060;2023-03-14T08:41:43;8.70;99.90
12700;DHT22;6414;49.570;6.060;2023-03-14T08:44:29;8.90;99.90
12700;DHT22;6414;49.570;6.060;2023-03-14T08:47:15;8.80;99.90
12700;DHT22;6414;49.570;6.060;2023-03-14T08:50:02;8.80;99.90
12700;DHT22;6414;49.570;6.060;2023-03-14T08:52:48;8.90;99.90
12700;DHT22;6414;49.570;6.060;2023-03-14T08:55:33;8.90;99.90
12700;DHT22;6414;49.570;6.060;2023-03-14T08:58:20;8.70;99.90
12700;DHT22;6414;49.570;6.060;2023-03-14T09:01:05;8.70;99.90
12700;DHT22;6414;49.570;6.060;2023-03-14T09:03:51;8.40;99.90
12700;DHT22;6414;49.570;6.060;2023-03-14T09:06:36;8.40;99.90
12700;DHT22;6414;49.570;6.060;2023-03-14T09:09:22;8.00;99.90
12700;DHT22;6414;49.570;6.060;2023-03-14T09:12:08;8.00;99.90
12700;DHT22;6414;49.570;6.060;2023-03-14T09:14:54;7.90;99.90
12700;DHT22;6414;49.570;6.060;2023-03-14T09:17:39;7.70;99.90
12700;DHT22;6414;49.570;6.060;2023-03-14T09:20:25;7.80;99.90
12700;DHT22;6414;49.570;6.060;2023-03-14T09:23:11;7.70;99.90
12700;DHT22;6414;49.570;6.060;2023-03-14T09:25:57;7.70;99.90
12700;DHT22;6414;49.570;6.060;2023-03-14T09:28:42;7.90;99.90
12700;DHT22;6414;49.570;6.060;2023-03-14T09:31:27;7.90;99.90
12700;DHT22;6414;49.570;6.060;2023-03-14T09:34:13;7.80;99.90
12700;DHT22;6414;49.570;6.060;2023-03-14T09:36:58;7.70;99.90
12700;DHT22;6414;49.570;6.060;2023-03-14T09:39:44;7.50;99.90
12700;DHT22;6414;49.570;6.060;2023-03-14T09:42:29;7.30;99.90
12700;DHT22;6414;49.570;6.060;2023-03-14T09:45:28;7.00;99.90
12700;DHT22;6414;49.570;6.060;2023-03-14T09:48:17;7.00;99.90
12700;DHT22;6414;49.570;6.060;2023-03-14T09:51:03;7.00;99.90
12700;DHT22;6414;49.570;6.060;2023-03-14T09:53:48;6.70;99.90
12700;DHT22;6414;49.570;6.060;2023-03-14T09:56:34;6.70;99.90
12700;DHT22;6414;49.570;6.060;2023-03-14T09:59:20;6.60;99.90
12700;DHT22;6414;49.570;6.060;2023-03-14T10:02:13;6.60;99.90
12700;DHT22;6414;49.570;6.060;2023-03-14T10:04:57;6.50;99.90
12700;DHT22;6414;49.570;6.060;2023-03-14T10:07:43;6.10;99.90
12700;DHT22;6414;49.570;6.060;2023-03-14T10:10:30;6.00;99.90
12700;DHT22;6414;49.570;6.060;2023-03-14T10:13:21;6.00;99.90
12700;DHT22;6414;49.570;6.060;2023-03-14T10:16:10;6.00;99.90
12700;DHT22;6414;49.570;6.060;2023-03-14T10:18:59;6.00;99.90
12700;DHT22;6414;49.570;6.060;2023-03-14T10:21:44;6.30;99.90
12700;DHT22;6414;49.570;6.060;2023-03-14T10:24:33;6.60;99.90
12700;DHT22;6414;49.570;6.060;2023-03-14T10:27:19;6.90;99.90
12700;DHT22;6414;49.570;6.060;2023-03-14T10:30:05;6.90;99.90
12700;DHT22;6414;49.570;6.060;2023-03-14T10:32:49;6.50;99.90
12700;DHT22;6414;49.570;6.060;2023-03-14T10:35:35;6.50;99.90
12700;DHT22;6414;49.570;6.060;2023-03-14T10:38:22;6.80;99.90
12700;DHT22;6414;49.570;6.060;2023-03-14T10:41:17;6.80;99.90
12700;DHT22;6414;49.570;6.060;2023-03-14T10:44:01;7.10;99.90
12700;DHT22;6414;49.570;6.060;2023-03-14T10:46:55;7.00;99.90
12700;DHT22;6414;49.570;6.060;2023-03-14T10:49:35;6.70;99.90
12700;DHT22;6414;49.570;6.060;2023-03-14T10:52:23;6.70;99.90
12700;DHT22;6414;49.570;6.060;2023-03-14T10:55:10;6.50;99.90
12700;DHT22;6414;49.570;6.060;2023-03-14T10:57:55;6.60;99.90
12700;DHT22;6414;49.570;6.060;2023-03-14T11:00:40;6.80;99.90
12700;DHT22;6414;49.570;6.060;2023-03-14T11:03:27;6.90;99.90
12700;DHT22;6414;49.570;6.060;2023-03-14T11:06:14;6.80;99.90
12700;DHT22;6414;49.570;6.060;2023-03-14T11:09:15;7.00;99.90
12700;DHT22;6414;49.570;6.060;2023-03-14T11:11:58;7.00;99.90
12700;DHT22;6414;49.570;6.060;2023-03-14T11:14:43;6.90;99.90
12700;DHT22;6414;49.570;6.060;2023-03-14T11:23:32;7.60;99.90
12700;DHT22;6414;49.570;6.060;2023-03-14T11:29:41;7.20;99.90
12700;DHT22;6414;49.570;6.060;2023-03-14T11:32:36;7.00;99.90
12700;DHT22;6414;49.570;6.060;2023-03-14T11:41:39;6.50;99.90
12700;DHT22;6414;49.570;6.060;2023-03-14T11:44:20;6.40;99.90
12700;DHT22;6414;49.570;6.060;2023-03-14T11:47:24;6.50;99.90
12700;DHT22;6414;49.570;6.060;2023-03-14T11:50:15;6.60;99.90
12700;DHT22;6414;49.570;6.060;2023-03-14T11:53:05;6.60;99.90
12700;DHT22;6414;49.570;6.060;2023-03-14T11:55:50;6.60;99.90
12700;DHT22;6414;49.570;6.060;2023-03-14T11:58:35;6.60;99.90
12700;DHT22;6414;49.570;6.060;2023-03-14T12:01:21;7.10;99.90
12700;DHT22;6414;49.570;6.060;2023-03-14T12:04:13;7.20;99.90
12700;DHT22;6414;49.570;6.060;2023-03-14T12:06:55;7.10;99.90
12700;DHT22;6414;49.570;6.060;2023-03-14T12:09:41;6.70;99.90
12700;DHT22;6414;49.570;6.060;2023-03-14T12:12:27;6.80;99.90
12700;DHT22;6414;49.570;6.060;2023-03-14T12:15:19;6.80;99.90
12700;DHT22;6414;49.570;6.060;2023-03-14T12:18:01;7.10;99.90
12700;DHT22;6414;49.570;6.060;2023-03-14T12:20:50;7.10;99.90
12700;DHT22;6414;49.570;6.060;2023-03-14T12:23:57;7.10;99.90
12700;DHT22;6414;49.570;6.060;2023-03-14T12:26:27;7.90;99.90
12700;DHT22;6414;49.570;6.060;2023-03-14T12:29:15;8.40;99.90
12700;DHT22;6414;49.570;6.060;2023-03-14T12:34:46;7.30;99.90
12700;DHT22;6414;49.570;6.060;2023-03-14T12:37:41;7.30;99.90
12700;DHT22;6414;49.570;6.060;2023-03-14T12:40:29;7.10;99.90
12700;DHT22;6414;49.570;6.060;2023-03-14T12:43:25;7.10;99.90
12700;DHT22;6414;49.570;6.060;2023-03-14T12:46:14;7.00;99.90
12700;DHT22;6414;49.570;6.060;2023-03-14T12:51:41;7.80;1.00
12700;DHT22;6414;49.570;6.060;2023-03-14T12:57:21;7.60;99.90
12700;DHT22;6414;49.570;6.060;2023-03-14T13:00:17;7.60;1.00
12700;DHT22;6414;49.570;6.060;2023-03-14T13:03:02;7.60;1.00
12700;DHT22;6414;49.570;6.060;2023-03-14T13:05:57;7.50;1.00
12700;DHT22;6414;49.570;6.060;2023-03-14T13:08:43;7.40;1.00
12700;DHT22;6414;49.570;6.060;2023-03-14T13:11:29;7.60;1.00
12700;DHT22;6414;49.570;6.060;2023-03-14T13:14:14;7.60;1.00
12700;DHT22;6414;49.570;6.060;2023-03-14T13:17:00;7.50;1.00
12700;DHT22;6414;49.570;6.060;2023-03-14T13:19:47;7.60;99.90
12700;DHT22;6414;49.570;6.060;2023-03-14T13:22:31;8.00;99.90
12700;DHT22;6414;49.570;6.060;2023-03-14T13:25:16;8.00;92.40
12700;DHT22;6414;49.570;6.060;2023-03-14T13:28:02;8.20;99.90
12700;DHT22;6414;49.570;6.060;2023-03-14T13:30:49;7.90;1.00
12700;DHT22;6414;49.570;6.060;2023-03-14T13:33:34;7.90;1.00
12700;DHT22;6414;49.570;6.060;2023-03-14T13:36:21;8.00;99.90
12700;DHT22;6414;49.570;6.060;2023-03-14T13:39:13;8.20;99.90
12700;DHT22;6414;49.570;6.060;2023-03-14T13:42:01;8.20;99.90
12700;DHT22;6414;49.570;6.060;2023-03-14T13:44:46;8.40;1.00
12700;DHT22;6414;49.570;6.060;2023-03-14T13:47:32;8.40;1.00
12700;DHT22;6414;49.570;6.060;2023-03-14T13:50:17;8.20;1.00
12700;DHT22;6414;49.570;6.060;2023-03-14T13:53:03;8.10;99.90
12700;DHT22;6414;49.570;6.060;2023-03-14T13:55:48;8.40;1.00
12700;DHT22;6414;49.570;6.060;2023-03-14T13:58:33;8.00;1.00
12700;DHT22;6414;49.570;6.060;2023-03-14T14:01:26;8.10;1.00
12700;DHT22;6414;49.570;6.060;2023-03-14T14:04:17;8.60;99.90
12700;DHT22;6414;49.570;6.060;2023-03-14T14:07:06;8.60;99.90
12700;DHT22;6414;49.570;6.060;2023-03-14T14:09:52;8.50;1.00
12700;DHT22;6414;49.570;6.060;2023-03-14T14:12:48;8.30;1.00
12700;DHT22;6414;49.570;6.060;2023-03-14T14:15:34;8.20;1.00
12700;DHT22;6414;49.570;6.060;2023-03-14T14:18:21;8.30;99.90
12700;DHT22;6414;49.570;6.060;2023-03-14T14:21:05;8.30;99.90
12700;DHT22;6414;49.570;6.060;2023-03-14T14:23:51;8.30;99.90
12700;DHT22;6414;49.570;6.060;2023-03-14T14:26:39;8.40;99.90
12700;DHT22;6414;49.570;6.060;2023-03-14T14:29:26;8.50;99.90
12700;DHT22;6414;49.570;6.060;2023-03-14T14:32:14;8.40;99.90
12700;DHT22;6414;49.570;6.060;2023-03-14T14:34:59;8.50;1.00
12700;DHT22;6414;49.570;6.060;2023-03-14T14:37:45;8.70;99.90
12700;DHT22;6414;49.570;6.060;2023-03-14T14:40:31;8.40;99.90
12700;DHT22;6414;49.570;6.060;2023-03-14T14:43:21;8.30;99.90
12700;DHT22;6414;49.570;6.060;2023-03-14T14:46:05;8.90;1.00
12700;DHT22;6414;49.570;6.060;2023-03-14T14:48:48;8.80;99.90
12700;DHT22;6414;49.570;6.060;2023-03-14T14:51:38;9.20;99.90
12700;DHT22;6414;49.570;6.060;2023-03-14T14:54:20;9.20;1.00
12700;DHT22;6414;49.570;6.060;2023-03-14T14:57:05;8.60;99.90
12700;DHT22;6414;49.570;6.060;2023-03-14T14:59:51;8.00;1.00
12700;DHT22;6414;49.570;6.060;2023-03-14T15:02:40;8.10;1.00
12700;DHT22;6414;49.570;6.060;2023-03-14T15:05:26;8.60;49.70
12700;DHT22;6414;49.570;6.060;2023-03-14T15:08:11;8.90;1.00
12700;DHT22;6414;49.570;6.060;2023-03-14T15:10:57;8.90;1.00
12700;DHT22;6414;49.570;6.060;2023-03-14T15:13:43;8.00;89.00
12700;DHT22;6414;49.570;6.060;2023-03-14T15:16:29;8.00;81.10
12700;DHT22;6414;49.570;6.060;2023-03-14T15:19:19;7.20;99.90
12700;DHT22;6414;49.570;6.060;2023-03-14T15:22:00;7.20;99.90
12700;DHT22;6414;49.570;6.060;2023-03-14T15:24:46;7.20;99.90
12700;DHT22;6414;49.570;6.060;2023-03-14T15:27:31;6.90;99.90
12700;DHT22;6414;49.570;6.060;2023-03-14T15:30:17;6.60;99.90
12700;DHT22;6414;49.570;6.060;2023-03-14T15:33:03;6.60;99.90
12700;DHT22;6414;49.570;6.060;2023-03-14T15:35:48;6.50;99.90
12700;DHT22;6414;49.570;6.060;2023-03-14T15:38:35;6.20;99.90
12700;DHT22;6414;49.570;6.060;2023-03-14T15:41:20;6.20;99.90
12700;DHT22;6414;49.570;6.060;2023-03-14T15:46:42;5.10;99.90
12700;DHT22;6414;49.570;6.060;2023-03-14T15:49:28;5.00;99.90
12700;DHT22;6414;49.570;6.060;2023-03-14T15:52:13;5.00;99.90
12700;DHT22;6414;49.570;6.060;2023-03-14T15:54:58;4.70;99.90
12700;DHT22;6414;49.570;6.060;2023-03-14T15:57:45;4.50;99.90
12700;DHT22;6414;49.570;6.060;2023-03-14T16:00:31;4.50;99.90
12700;DHT22;6414;49.570;6.060;2023-03-14T16:03:16;4.90;99.90
12700;DHT22;6414;49.570;6.060;2023-03-14T16:06:02;5.30;99.90
12700;DHT22;6414;49.570;6.060;2023-03-14T16:08:48;5.10;99.90
12700;DHT22;6414;49.570;6.060;2023-03-14T16:11:33;5.10;99.90
12700;DHT22;6414;49.570;6.060;2023-03-14T16:14:19;5.20;99.90
12700;DHT22;6414;49.570;6.060;2023-03-14T16:17:04;5.00;99.90
12700;DHT22;6414;49.570;6.060;2023-03-14T16:19:50;4.90;99.90
12700;DHT22;6414;49.570;6.060;2023-03-14T16:22:36;5.00;99.90
12700;DHT22;6414;49.570;6.060;2023-03-14T16:25:22;5.00;99.90
12700;DHT22;6414;49.570;6.060;2023-03-14T16:28:07;5.00;99.90
12700;DHT22;6414;49.570;6.060;2023-03-14T16:30:55;5.00;99.90
12700;DHT22;6414;49.570;6.060;2023-03-14T16:33:38;4.90;99.90
12700;DHT22;6414;49.570;6.060;2023-03-14T16:36:23;4.90;99.90
12700;DHT22;6414;49.570;6.060;2023-03-14T16:39:09;5.00;99.90
12700;DHT22;6414;49.570;6.060;2023-03-14T16:41:55;4.80;99.90
12700;DHT22;6414;49.570;6.060;2023-03-14T16:44:41;4.80;99.90
12700;DHT22;6414;49.570;6.060;2023-03-14T16:47:26;4.90;99.90
12700;DHT22;6414;49.570;6.060;2023-03-14T16:50:12;4.90;99.90
12700;DHT22;6414;49.570;6.060;2023-03-14T16:52:57;4.80;99.90
12700;DHT22;6414;49.570;6.060;2023-03-14T16:55:43;4.80;99.90
12700;DHT22;6414;49.570;6.060;2023-03-14T16:58:29;4.70;99.90
12700;DHT22;6414;49.570;6.060;2023-03-14T17:01:14;4.60;99.90
12700;DHT22;6414;49.570;6.060;2023-03-14T17:04:00;4.60;99.90
12700;DHT22;6414;49.570;6.060;2023-03-14T17:06:46;4.60;99.90
12700;DHT22;6414;49.570;6.060;2023-03-14T17:09:31;4.60;99.90
12700;DHT22;6414;49.570;6.060;2023-03-14T17:12:17;4.70;99.90
12700;DHT22;6414;49.570;6.060;2023-03-14T17:15:03;4.40;99.90
12700;DHT22;6414;49.570;6.060;2023-03-14T17:17:48;4.40;99.90
12700;DHT22;6414;49.570;6.060;2023-03-14T17:20:34;4.20;99.90
12700;DHT22;6414;49.570;6.060;2023-03-14T17:23:20;4.00;99.90
12700;DHT22;6414;49.570;6.060;2023-03-14T17:26:05;3.90;99.90
12700;DHT22;6414;49.570;6.060;2023-03-14T17:28:51;3.90;99.90
12700;DHT22;6414;49.570;6.060;2023-03-14T17:31:36;3.70;99.90
12700;DHT22;6414;49.570;6.060;2023-03-14T17:34:23;3.70;99.90
12700;DHT22;6414;49.570;6.060;2023-03-14T17:37:08;3.70;99.90
12700;DHT22;6414;49.570;6.060;2023-03-14T17:39:54;3.70;99.90
12700;DHT22;6414;49.570;6.060;2023-03-14T17:42:39;3.40;99.90
12700;DHT22;6414;49.570;6.060;2023-03-14T17:45:25;2.00;99.90
12700;DHT22;6414;49.570;6.060;2023-03-14T17:48:11;2.00;99.90
12700;DHT22;6414;49.570;6.060;2023-03-14T17:50:57;1.20;99.90
12700;DHT22;6414;49.570;6.060;2023-03-14T17:53:43;1.10;99.90
12700;DHT22;6414;49.570;6.060;2023-03-14T17:56:28;1.10;99.90
12700;DHT22;6414;49.570;6.060;2023-03-14T17:59:14;1.10;99.90
12700;DHT22;6414;49.570;6.060;2023-03-14T18:02:00;1.10;99.90
12700;DHT22;6414;49.570;6.060;2023-03-14T18:04:46;1.10;99.90
12700;DHT22;6414;49.570;6.060;2023-03-14T18:07:34;1.20;99.90
12700;DHT22;6414;49.570;6.060;2023-03-14T18:10:20;1.20;99.90
12700;DHT22;6414;49.570;6.060;2023-03-14T18:13:06;1.20;99.90
12700;DHT22;6414;49.570;6.060;2023-03-14T18:15:53;1.20;99.90
12700;DHT22;6414;49.570;6.060;2023-03-14T18:18:39;1.20;99.90
12700;DHT22;6414;49.570;6.060;2023-03-14T18:21:24;1.20;99.90
12700;DHT22;6414;49.570;6.060;2023-03-14T18:24:10;1.30;99.90
12700;DHT22;6414;49.570;6.060;2023-03-14T18:26:55;1.30;99.90
12700;DHT22;6414;49.570;6.060;2023-03-14T18:29:40;1.40;99.90
12700;DHT22;6414;49.570;6.060;2023-03-14T18:32:26;1.30;99.90
12700;DHT22;6414;49.570;6.060;2023-03-14T18:35:11;1.30;99.90
12700;DHT22;6414;49.570;6.060;2023-03-14T18:37:57;1.30;99.90
12700;DHT22;6414;49.570;6.060;2023-03-14T18:40:42;1.20;99.90
12700;DHT22;6414;49.570;6.060;2023-03-14T18:43:27;1.10;99.90